createdAt,value
2017-05-11T00:00:08.411Z,99.99
2017-05-11T00:00:48.940Z,99.99
2017-05-11T00:01:29.480Z,99.99
2017-05-11T00:02:10.001Z,99.99
2017-05-11T00:02:50.534Z,99.99
2017-05-11T00:03:31.071Z,99.99
2017-05-11T00:04:11.603Z,99.99
2017-05-11T00:04:52.135Z,99.99
2017-05-11T00:05:32.671Z,99.99
2017-05-11T00:06:13.201Z,99.99
2017-05-11T00:06:53.738Z,99.99
2017-05-11T00:07:34.275Z,99.99
2017-05-11T00:08:14.808Z,99.99
2017-05-11T00:08:55.337Z,99.99
2017-05-11T00:09:35.865Z,99.99
2017-05-11T00:10:16.406Z,99.99
2017-05-11T00:10:56.940Z,99.99
2017-05-11T00:11:37.475Z,99.99
2017-05-11T00:12:18.010Z,99.99
2017-05-11T00:12:58.548Z,99.99
2017-05-11T00:13:39.086Z,99.99
2017-05-11T00:14:19.618Z,99.99
2017-05-11T00:15:00.157Z,99.99
2017-05-11T00:15:40.698Z,99.99
2017-05-11T00:16:21.231Z,99.99
2017-05-11T00:17:01.760Z,99.99
2017-05-11T00:17:42.303Z,99.99
2017-05-11T00:18:22.832Z,99.99
2017-05-11T00:19:03.359Z,99.99
2017-05-11T00:19:43.911Z,99.99
2017-05-11T00:20:24.447Z,99.99
2017-05-11T00:21:04.981Z,99.99
2017-05-11T00:21:45.517Z,99.99
2017-05-11T00:22:26.052Z,99.99
2017-05-11T00:23:06.588Z,99.99
2017-05-11T00:23:47.112Z,99.99
2017-05-11T00:24:27.653Z,99.99
2017-05-11T00:25:08.188Z,99.99
2017-05-11T00:25:48.729Z,99.99
2017-05-11T00:26:29.257Z,99.99
2017-05-11T00:27:09.789Z,99.99
2017-05-11T00:27:50.317Z,99.99
2017-05-11T00:28:30.855Z,99.99
2017-05-11T00:29:11.376Z,99.99
2017-05-11T00:29:51.908Z,99.99
2017-05-11T00:30:32.439Z,99.99
2017-05-11T00:31:12.969Z,99.99
2017-05-11T00:31:53.505Z,99.99
2017-05-11T00:32:34.039Z,99.99
2017-05-11T00:33:14.565Z,99.99
2017-05-11T00:33:55.106Z,99.99
2017-05-11T00:34:35.629Z,99.99
2017-05-11T00:35:16.159Z,99.99
2017-05-11T00:35:56.708Z,99.99
2017-05-11T00:36:37.244Z,99.99
2017-05-11T00:37:17.777Z,99.99
2017-05-11T00:37:58.305Z,99.99
2017-05-11T00:38:38.836Z,99.99
2017-05-11T00:39:19.376Z,99.99
2017-05-11T00:39:59.907Z,99.99
2017-05-11T00:40:40.441Z,99.99
2017-05-11T00:41:20.973Z,99.99
2017-05-11T00:42:01.503Z,99.99
2017-05-11T00:42:42.040Z,99.99
2017-05-11T00:43:22.583Z,99.99
2017-05-11T00:44:03.119Z,99.99
2017-05-11T00:44:43.651Z,99.99
2017-05-11T00:45:24.183Z,99.99
2017-05-11T00:46:04.716Z,99.99
2017-05-11T00:46:45.252Z,99.99
2017-05-11T00:47:25.780Z,99.99
2017-05-11T00:48:06.316Z,99.99
2017-05-11T00:48:46.848Z,99.99
2017-05-11T00:49:27.376Z,99.99
2017-05-11T00:50:07.914Z,99.99
2017-05-11T00:50:48.449Z,99.99
2017-05-11T00:51:28.983Z,99.99
2017-05-11T00:52:09.516Z,99.99
2017-05-11T00:52:50.049Z,99.99
2017-05-11T00:53:30.586Z,99.99
2017-05-11T00:54:11.125Z,99.99
2017-05-11T00:54:51.659Z,99.99
2017-05-11T00:55:32.221Z,99.99
2017-05-11T00:56:12.721Z,99.99
2017-05-11T00:56:53.252Z,99.99
2017-05-11T00:57:33.782Z,99.99
2017-05-11T00:58:14.353Z,99.99
2017-05-11T00:58:54.885Z,99.99
2017-05-11T00:59:35.422Z,99.99
2017-05-11T01:00:15.964Z,99.99
2017-05-11T01:00:56.492Z,99.99
2017-05-11T01:01:37.022Z,99.99
2017-05-11T01:02:17.562Z,99.99
2017-05-11T01:02:58.088Z,99.99
2017-05-11T01:03:38.624Z,99.99
2017-05-11T01:04:19.159Z,99.99
2017-05-11T01:04:59.693Z,99.99
2017-05-11T01:05:40.230Z,99.99
2017-05-11T01:06:20.760Z,99.99
2017-05-11T01:07:01.284Z,99.99
2017-05-11T01:07:41.820Z,99.99
2017-05-11T01:08:22.347Z,99.99
2017-05-11T01:09:02.882Z,99.99
2017-05-11T01:09:43.417Z,99.99
2017-05-11T01:10:23.947Z,99.99
2017-05-11T01:11:04.471Z,99.99
2017-05-11T01:11:45.009Z,99.99
2017-05-11T01:12:25.544Z,99.99
2017-05-11T01:13:06.073Z,99.99
2017-05-11T01:13:46.610Z,99.99
2017-05-11T01:14:27.140Z,99.99
2017-05-11T01:15:07.672Z,99.99
2017-05-11T01:15:48.210Z,99.99
2017-05-11T01:16:28.751Z,99.99
2017-05-11T01:17:09.287Z,99.99
2017-05-11T01:17:49.823Z,99.99
2017-05-11T01:18:30.352Z,99.99
2017-05-11T01:19:10.888Z,99.99
2017-05-11T01:19:51.423Z,99.99
2017-05-11T01:20:31.958Z,99.99
2017-05-11T01:21:12.493Z,99.99
2017-05-11T01:21:53.033Z,99.99
2017-05-11T01:22:33.571Z,99.99
2017-05-11T01:23:14.102Z,99.99
2017-05-11T01:23:54.639Z,99.99
2017-05-11T01:24:35.173Z,99.99
2017-05-11T01:25:15.708Z,99.99
2017-05-11T01:25:56.244Z,99.99
2017-05-11T01:26:36.776Z,99.99
2017-05-11T01:27:17.325Z,99.99
2017-05-11T01:27:57.863Z,99.99
2017-05-11T01:28:38.395Z,99.99
2017-05-11T01:29:18.935Z,99.99
2017-05-11T01:29:59.462Z,99.99
2017-05-11T01:30:39.998Z,99.99
2017-05-11T01:31:20.535Z,99.99
2017-05-11T01:32:01.071Z,99.99
2017-05-11T01:32:41.630Z,99.99
2017-05-11T01:33:22.160Z,99.99
2017-05-11T01:34:02.690Z,99.99
2017-05-11T01:34:43.228Z,99.99
2017-05-11T01:35:23.766Z,99.99
2017-05-11T01:36:04.302Z,99.99
2017-05-11T01:36:44.837Z,99.99
2017-05-11T01:37:25.372Z,99.99
2017-05-11T01:38:05.906Z,99.99
2017-05-11T01:38:46.432Z,99.99
2017-05-11T01:39:26.971Z,99.99
2017-05-11T01:40:07.506Z,99.99
2017-05-11T01:40:48.041Z,99.99
2017-05-11T01:41:28.576Z,99.99
2017-05-11T01:42:09.108Z,99.99
2017-05-11T01:42:49.636Z,99.99
2017-05-11T01:43:30.172Z,99.99
2017-05-11T01:44:10.708Z,99.99
2017-05-11T01:44:51.241Z,99.99
2017-05-11T01:45:31.767Z,99.99
2017-05-11T01:46:12.305Z,99.99
2017-05-11T01:46:52.836Z,99.99
2017-05-11T01:47:33.374Z,99.99
2017-05-11T01:48:13.911Z,99.99
2017-05-11T01:48:54.457Z,99.99
2017-05-11T01:49:35.027Z,99.99
2017-05-11T01:50:15.519Z,99.99
2017-05-11T01:50:56.051Z,99.99
2017-05-11T01:51:36.587Z,99.99
2017-05-11T01:52:17.129Z,99.99
2017-05-11T01:52:57.666Z,99.99
2017-05-11T01:53:38.202Z,99.99
2017-05-11T01:54:18.733Z,99.99
2017-05-11T01:54:59.267Z,99.99
2017-05-11T01:55:39.804Z,99.99
2017-05-11T01:56:20.341Z,99.99
2017-05-11T01:57:00.888Z,99.99
2017-05-11T01:57:41.426Z,99.99
2017-05-11T01:58:21.957Z,99.99
2017-05-11T01:59:02.484Z,99.99
2017-05-11T01:59:43.015Z,99.99
2017-05-11T02:00:23.556Z,99.99
2017-05-11T02:01:04.120Z,99.99
2017-05-11T02:01:44.687Z,99.99
2017-05-11T02:02:25.231Z,99.99
2017-05-11T02:03:05.768Z,99.99
2017-05-11T02:03:46.293Z,99.99
2017-05-11T02:04:26.825Z,99.99
2017-05-11T02:05:07.372Z,99.99
2017-05-11T02:05:47.906Z,99.99
2017-05-11T02:06:28.435Z,99.99
2017-05-11T02:07:08.966Z,99.99
2017-05-11T02:07:49.496Z,99.99
2017-05-11T02:08:30.030Z,99.99
2017-05-11T02:09:10.565Z,99.99
2017-05-11T02:09:51.090Z,99.99
2017-05-11T02:10:31.619Z,99.99
2017-05-11T02:11:12.158Z,99.99
2017-05-11T02:11:52.697Z,99.99
2017-05-11T02:12:33.253Z,99.99
2017-05-11T02:13:13.790Z,99.99
2017-05-11T02:13:54.327Z,99.99
2017-05-11T02:14:34.864Z,99.99
2017-05-11T02:15:15.393Z,99.99
2017-05-11T02:15:55.922Z,99.99
2017-05-11T02:16:36.459Z,99.99
2017-05-11T02:17:16.995Z,99.99
2017-05-11T02:17:57.535Z,99.99
2017-05-11T02:18:38.082Z,99.99
2017-05-11T02:19:18.615Z,99.99
2017-05-11T02:19:59.146Z,99.99
2017-05-11T02:20:39.678Z,99.99
2017-05-11T02:21:20.213Z,99.99
2017-05-11T02:22:00.749Z,99.99
2017-05-11T02:22:41.283Z,99.99
2017-05-11T02:23:21.820Z,99.99
2017-05-11T02:24:02.356Z,99.99
2017-05-11T02:24:42.885Z,99.99
2017-05-11T02:25:23.418Z,99.99
2017-05-11T02:26:03.948Z,99.99
2017-05-11T02:26:44.486Z,99.99
2017-05-11T02:27:25.022Z,99.99
2017-05-11T02:28:05.552Z,99.99
2017-05-11T02:28:46.102Z,99.99
2017-05-11T02:29:26.631Z,99.99
2017-05-11T02:30:07.162Z,99.99
2017-05-11T02:30:47.696Z,99.99
2017-05-11T02:31:28.228Z,99.99
2017-05-11T02:32:08.765Z,99.99
2017-05-11T02:32:49.296Z,99.99
2017-05-11T02:33:29.822Z,99.99
2017-05-11T02:34:10.353Z,99.99
2017-05-11T02:34:50.890Z,99.99
2017-05-11T02:35:31.412Z,99.99
2017-05-11T02:36:11.951Z,99.99
2017-05-11T02:36:52.487Z,99.99
2017-05-11T02:37:33.014Z,99.99
2017-05-11T02:38:13.550Z,99.99
2017-05-11T02:38:54.089Z,99.99
2017-05-11T02:39:34.620Z,99.99
2017-05-11T02:40:15.149Z,99.99
2017-05-11T02:40:55.676Z,99.99
2017-05-11T02:41:36.217Z,99.99
2017-05-11T02:42:16.757Z,99.99
2017-05-11T02:42:57.290Z,99.99
2017-05-11T02:43:37.824Z,99.99
2017-05-11T02:44:18.360Z,99.99
2017-05-11T02:44:58.894Z,99.99
2017-05-11T02:45:39.425Z,99.99
2017-05-11T02:46:19.961Z,99.99
2017-05-11T02:47:00.501Z,99.99
2017-05-11T02:47:41.036Z,99.99
2017-05-11T02:48:21.566Z,99.99
2017-05-11T02:49:02.109Z,99.99
2017-05-11T02:49:42.632Z,99.99
2017-05-11T02:50:23.169Z,99.99
2017-05-11T02:51:03.704Z,99.99
2017-05-11T02:51:44.240Z,99.99
2017-05-11T02:52:24.773Z,99.99
2017-05-11T02:53:05.306Z,99.99
2017-05-11T02:53:45.840Z,99.99
2017-05-11T02:54:26.426Z,99.99
2017-05-11T02:55:06.914Z,99.99
2017-05-11T02:55:47.504Z,99.99
2017-05-11T02:56:28.007Z,99.99
2017-05-11T02:57:08.543Z,99.99
2017-05-11T02:57:49.084Z,99.99
2017-05-11T02:58:29.607Z,99.99
2017-05-11T02:59:10.159Z,99.99
2017-05-11T02:59:50.683Z,99.99
2017-05-11T03:00:31.216Z,99.99
2017-05-11T03:01:11.752Z,99.99
2017-05-11T03:01:52.281Z,99.99
2017-05-11T03:02:32.808Z,99.99
2017-05-11T03:03:13.342Z,99.99
2017-05-11T03:03:53.881Z,99.99
2017-05-11T03:04:34.406Z,99.99
2017-05-11T03:05:14.942Z,99.99
2017-05-11T03:05:55.475Z,99.99
2017-05-11T03:06:36.007Z,99.99
2017-05-11T03:07:16.546Z,99.99
2017-05-11T03:07:57.088Z,99.99
2017-05-11T03:08:37.626Z,99.99
2017-05-11T03:09:18.160Z,99.99
2017-05-11T03:09:58.683Z,99.99
2017-05-11T03:10:39.223Z,99.99
2017-05-11T03:11:19.740Z,99.99
2017-05-11T03:12:00.277Z,99.99
2017-05-11T03:12:40.805Z,99.99
2017-05-11T03:13:21.342Z,99.99
2017-05-11T03:14:01.881Z,99.99
2017-05-11T03:14:42.413Z,99.99
2017-05-11T03:15:22.943Z,99.99
2017-05-11T03:16:03.481Z,99.99
2017-05-11T03:16:44.023Z,99.99
2017-05-11T03:17:24.559Z,99.99
2017-05-11T03:18:05.101Z,99.99
2017-05-11T03:18:45.631Z,99.99
2017-05-11T03:19:26.171Z,99.99
2017-05-11T03:20:06.703Z,99.99
2017-05-11T03:20:47.249Z,99.99
2017-05-11T03:21:27.783Z,99.99
2017-05-11T03:22:08.320Z,99.99
2017-05-11T03:22:48.852Z,99.99
2017-05-11T03:23:29.389Z,99.99
2017-05-11T03:24:09.922Z,99.99
2017-05-11T03:24:50.490Z,99.99
2017-05-11T03:25:31.024Z,99.99
2017-05-11T03:26:11.552Z,99.99
2017-05-11T03:26:52.085Z,99.99
2017-05-11T03:27:32.621Z,99.99
2017-05-11T03:28:13.158Z,99.99
2017-05-11T03:28:53.693Z,99.99
2017-05-11T03:29:34.227Z,99.99
2017-05-11T03:30:14.765Z,99.99
2017-05-11T03:30:55.299Z,99.99
2017-05-11T03:31:35.835Z,99.99
2017-05-11T03:32:16.364Z,99.99
2017-05-11T03:32:56.898Z,99.99
2017-05-11T03:33:37.433Z,99.99
2017-05-11T03:34:17.968Z,99.99
2017-05-11T03:34:58.495Z,99.99
2017-05-11T03:35:39.036Z,99.99
2017-05-11T03:36:19.579Z,99.99
2017-05-11T03:37:00.115Z,99.99
2017-05-11T03:37:40.653Z,99.99
2017-05-11T03:38:21.183Z,99.99
2017-05-11T03:39:01.719Z,99.99
2017-05-11T03:39:42.256Z,99.99
2017-05-11T03:40:22.790Z,99.99
2017-05-11T03:41:03.326Z,99.99
2017-05-11T03:41:43.864Z,99.99
2017-05-11T03:42:24.404Z,99.99
2017-05-11T03:43:04.942Z,99.99
2017-05-11T03:43:45.462Z,99.99
2017-05-11T03:44:26.001Z,99.99
2017-05-11T03:45:06.542Z,99.99
2017-05-11T03:45:47.078Z,99.99
2017-05-11T03:46:27.618Z,99.99
2017-05-11T03:47:08.154Z,99.99
2017-05-11T03:47:48.689Z,99.99
2017-05-11T03:48:29.218Z,99.99
2017-05-11T03:49:09.754Z,99.99
2017-05-11T03:49:50.290Z,99.99
2017-05-11T03:50:30.871Z,99.99
2017-05-11T03:51:11.405Z,99.99
2017-05-11T03:51:51.941Z,99.99
2017-05-11T03:52:32.494Z,99.99
2017-05-11T03:53:13.009Z,99.99
2017-05-11T03:53:53.545Z,99.99
2017-05-11T03:54:34.074Z,99.99
2017-05-11T03:55:14.610Z,99.99
2017-05-11T03:55:55.148Z,99.99
2017-05-11T03:56:35.680Z,99.99
2017-05-11T03:57:16.213Z,99.99
2017-05-11T03:57:56.750Z,99.99
2017-05-11T03:58:37.284Z,99.99
2017-05-11T03:59:17.821Z,99.99
2017-05-11T03:59:58.392Z,99.99
2017-05-11T04:00:38.911Z,99.99
2017-05-11T04:01:19.447Z,99.99
2017-05-11T04:01:59.976Z,99.99
2017-05-11T04:02:40.505Z,99.99
2017-05-11T04:03:21.083Z,99.99
2017-05-11T04:04:01.603Z,99.99
2017-05-11T04:04:42.147Z,99.99
2017-05-11T04:05:22.668Z,99.99
2017-05-11T04:06:03.213Z,99.99
2017-05-11T04:06:43.747Z,99.99
2017-05-11T04:07:24.276Z,99.99
2017-05-11T04:08:04.808Z,99.99
2017-05-11T04:08:45.343Z,99.99
2017-05-11T04:09:25.871Z,99.99
2017-05-11T04:10:06.415Z,99.99
2017-05-11T04:10:46.961Z,99.99
2017-05-11T04:11:27.482Z,99.99
2017-05-11T04:12:08.010Z,99.99
2017-05-11T04:12:48.550Z,99.99
2017-05-11T04:13:29.084Z,99.99
2017-05-11T04:14:09.621Z,99.99
2017-05-11T04:14:50.159Z,99.99
2017-05-11T04:15:30.700Z,99.99
2017-05-11T04:16:11.225Z,99.99
2017-05-11T04:16:51.773Z,99.99
2017-05-11T04:17:32.306Z,99.99
2017-05-11T04:18:12.844Z,99.99
2017-05-11T04:18:53.375Z,99.99
2017-05-11T04:19:33.913Z,99.99
2017-05-11T04:20:14.450Z,99.99
2017-05-11T04:20:55.009Z,99.99
2017-05-11T04:21:35.575Z,99.99
2017-05-11T04:22:16.153Z,99.99
2017-05-11T04:22:56.622Z,99.99
2017-05-11T04:23:37.151Z,99.99
2017-05-11T04:24:17.710Z,99.99
2017-05-11T04:24:58.232Z,99.99
2017-05-11T04:25:38.730Z,99.99
2017-05-11T04:26:19.267Z,99.99
2017-05-11T04:26:59.835Z,99.99
2017-05-11T04:27:40.427Z,99.99
2017-05-11T04:28:20.932Z,99.99
2017-05-11T04:29:01.453Z,99.99
2017-05-11T04:29:41.991Z,99.99
2017-05-11T04:30:22.532Z,99.99
2017-05-11T04:31:03.070Z,99.99
2017-05-11T04:31:43.609Z,99.99
2017-05-11T04:32:24.148Z,99.99
2017-05-11T04:33:04.680Z,99.99
2017-05-11T04:33:45.212Z,99.99
2017-05-11T04:34:25.751Z,99.99
2017-05-11T04:35:06.297Z,99.99
2017-05-11T04:35:46.880Z,99.99
2017-05-11T04:36:27.398Z,99.99
2017-05-11T04:37:07.940Z,99.99
2017-05-11T04:37:48.480Z,99.99
2017-05-11T04:38:29.009Z,99.99
2017-05-11T04:39:09.543Z,99.99
2017-05-11T04:39:50.075Z,99.99
2017-05-11T04:40:30.616Z,99.99
2017-05-11T04:41:11.155Z,99.99
2017-05-11T04:41:51.702Z,99.99
2017-05-11T04:42:32.243Z,99.99
2017-05-11T04:43:12.782Z,99.99
2017-05-11T04:43:53.331Z,99.99
2017-05-11T04:44:33.875Z,99.99
2017-05-11T04:45:14.390Z,99.99
2017-05-11T04:45:54.933Z,99.99
2017-05-11T04:46:35.469Z,99.99
2017-05-11T04:47:16.008Z,99.99
2017-05-11T04:47:56.531Z,99.99
2017-05-11T04:48:37.091Z,99.99
2017-05-11T04:49:17.637Z,99.99
2017-05-11T04:49:58.178Z,99.99
2017-05-11T04:50:38.725Z,99.99
2017-05-11T04:51:19.265Z,99.99
2017-05-11T04:51:59.802Z,99.99
2017-05-11T04:52:40.353Z,99.99
2017-05-11T04:53:20.876Z,99.99
2017-05-11T04:54:01.413Z,99.99
2017-05-11T04:54:41.953Z,99.99
2017-05-11T04:55:22.497Z,99.99
2017-05-11T04:56:03.020Z,99.99
2017-05-11T04:56:43.553Z,99.99
2017-05-11T04:57:24.091Z,99.99
2017-05-11T04:58:04.631Z,99.99
2017-05-11T04:58:45.166Z,99.99
2017-05-11T04:59:25.702Z,99.99
2017-05-11T05:00:06.246Z,99.99
2017-05-11T05:00:46.777Z,99.99
2017-05-11T05:01:27.308Z,99.99
2017-05-11T05:02:07.845Z,99.99
2017-05-11T05:02:48.384Z,99.99
2017-05-11T05:03:28.924Z,99.99
2017-05-11T05:04:09.465Z,99.99
2017-05-11T05:04:50.005Z,99.99
2017-05-11T05:05:30.534Z,99.99
2017-05-11T05:06:11.100Z,99.99
2017-05-11T05:06:51.643Z,99.99
2017-05-11T05:07:32.182Z,99.99
2017-05-11T05:08:12.714Z,99.99
2017-05-11T05:08:53.263Z,99.99
2017-05-11T05:09:33.803Z,99.99
2017-05-11T05:10:14.334Z,99.99
2017-05-11T05:10:54.882Z,99.99
2017-05-11T05:11:35.423Z,99.99
2017-05-11T05:12:15.963Z,99.99
2017-05-11T05:12:56.497Z,99.99
2017-05-11T05:13:37.031Z,99.99
2017-05-11T05:14:17.595Z,99.99
2017-05-11T05:14:58.143Z,99.99
2017-05-11T05:15:38.687Z,99.99
2017-05-11T05:16:19.220Z,99.99
2017-05-11T05:16:59.748Z,99.99
2017-05-11T05:17:40.287Z,99.99
2017-05-11T05:18:20.813Z,99.99
2017-05-11T05:19:01.349Z,99.99
2017-05-11T05:19:41.892Z,99.99
2017-05-11T05:20:22.439Z,99.99
2017-05-11T05:21:02.980Z,99.99
2017-05-11T05:21:43.505Z,99.99
2017-05-11T05:22:24.043Z,99.99
2017-05-11T05:23:04.593Z,99.99
2017-05-11T05:23:45.134Z,99.99
2017-05-11T05:24:26.561Z,99.99
2017-05-11T05:25:06.257Z,99.99
2017-05-11T05:25:46.795Z,99.99
2017-05-11T05:26:27.335Z,99.99
2017-05-11T05:27:07.879Z,99.99
2017-05-11T05:27:48.404Z,99.99
2017-05-11T05:28:28.938Z,99.99
2017-05-11T05:29:09.490Z,99.99
2017-05-11T05:29:50.031Z,99.99
2017-05-11T05:30:30.561Z,99.99
2017-05-11T05:31:11.092Z,99.99
2017-05-11T05:31:51.635Z,99.99
2017-05-11T05:32:32.180Z,99.99
2017-05-11T05:33:12.708Z,99.99
2017-05-11T05:33:53.239Z,99.99
2017-05-11T05:34:33.776Z,99.99
2017-05-11T05:35:14.313Z,99.99
2017-05-11T05:35:54.851Z,99.99
2017-05-11T05:36:35.387Z,99.99
2017-05-11T05:37:15.911Z,99.99
2017-05-11T05:37:56.453Z,99.99
2017-05-11T05:38:36.992Z,99.99
2017-05-11T05:39:17.533Z,99.99
2017-05-11T05:39:58.066Z,99.99
2017-05-11T05:40:38.612Z,99.99
2017-05-11T05:41:19.157Z,99.99
2017-05-11T05:41:59.716Z,99.99
2017-05-11T05:42:40.265Z,99.99
2017-05-11T05:43:20.800Z,99.99
2017-05-11T05:44:01.342Z,99.99
2017-05-11T05:44:41.882Z,99.99
2017-05-11T05:45:22.418Z,99.99
2017-05-11T05:46:02.970Z,99.99
2017-05-11T05:48:02.086Z,99.99
2017-05-11T05:48:42.630Z,99.99
2017-05-11T05:49:23.171Z,99.99
2017-05-11T05:50:03.700Z,99.99
2017-05-11T05:50:44.244Z,99.99
2017-05-11T05:51:24.770Z,99.99
2017-05-11T05:52:05.300Z,99.99
2017-05-11T05:52:46.018Z,99.99
2017-05-11T05:53:26.717Z,99.99
2017-05-11T05:54:07.254Z,99.99
2017-05-11T05:54:47.796Z,99.99
2017-05-11T05:55:28.325Z,99.99
2017-05-11T05:56:08.863Z,99.99
2017-05-11T05:56:49.399Z,99.99
2017-05-11T05:57:29.931Z,99.99
2017-05-11T05:58:10.467Z,99.99
2017-05-11T05:58:51.000Z,99.99
2017-05-11T05:59:31.527Z,99.99
2017-05-11T06:00:12.058Z,99.99
2017-05-11T06:00:52.590Z,99.99
2017-05-11T06:01:33.129Z,99.99
2017-05-11T06:02:13.670Z,99.99
2017-05-11T06:02:54.205Z,99.99
2017-05-11T06:03:34.740Z,99.99
2017-05-11T06:04:15.275Z,99.99
2017-05-11T06:04:55.809Z,99.99
2017-05-11T06:05:36.345Z,99.99
2017-05-11T06:06:16.881Z,99.99
2017-05-11T06:06:57.416Z,99.99
2017-05-11T06:07:37.986Z,99.99
2017-05-11T06:08:18.488Z,99.99
2017-05-11T06:08:59.028Z,99.99
2017-05-11T06:09:39.564Z,99.99
2017-05-11T06:10:20.091Z,99.99
2017-05-11T06:11:00.627Z,99.99
2017-05-11T06:11:41.153Z,99.99
2017-05-11T06:12:21.686Z,99.99
2017-05-11T06:13:02.221Z,99.99
2017-05-11T06:13:42.767Z,99.99
2017-05-11T06:14:23.302Z,99.99
2017-05-11T06:15:03.908Z,99.99
2017-05-11T06:15:44.440Z,99.99
2017-05-11T06:16:24.970Z,99.99
2017-05-11T06:17:05.549Z,99.99
2017-05-11T06:17:46.152Z,99.99
2017-05-11T06:18:26.687Z,99.99
2017-05-11T06:19:07.210Z,99.99
2017-05-11T06:19:47.771Z,99.99
2017-05-11T06:20:28.294Z,99.99
2017-05-11T06:21:08.826Z,99.99
2017-05-11T06:21:49.355Z,99.99
2017-05-11T06:22:29.919Z,99.99
2017-05-11T06:23:10.455Z,99.99
2017-05-11T06:23:51.006Z,99.99
2017-05-11T06:24:31.535Z,99.99
2017-05-11T06:25:12.071Z,99.99
2017-05-11T06:25:52.605Z,99.99
2017-05-11T06:26:33.130Z,99.99
2017-05-11T06:27:13.668Z,99.99
2017-05-11T06:27:54.189Z,99.99
2017-05-11T06:28:34.782Z,99.99
2017-05-11T06:29:15.353Z,99.99
2017-05-11T06:29:55.878Z,99.99
2017-05-11T06:30:36.410Z,99.99
2017-05-11T06:31:16.941Z,99.99
2017-05-11T06:31:57.478Z,99.99
2017-05-11T06:32:38.028Z,99.99
2017-05-11T06:33:18.571Z,99.99
2017-05-11T06:33:59.104Z,99.99
2017-05-11T06:34:39.642Z,99.99
2017-05-11T06:35:20.171Z,99.99
2017-05-11T06:36:00.708Z,99.99
2017-05-11T06:36:41.244Z,99.99
2017-05-11T06:37:21.809Z,99.99
2017-05-11T06:38:02.350Z,99.99
2017-05-11T06:38:42.890Z,99.99
2017-05-11T06:39:23.425Z,99.99
2017-05-11T06:40:04.168Z,99.99
2017-05-11T06:40:44.842Z,99.99
2017-05-11T06:41:25.368Z,99.99
2017-05-11T06:42:05.907Z,99.99
2017-05-11T06:42:46.460Z,99.99
2017-05-11T06:43:26.993Z,99.99
2017-05-11T06:44:07.527Z,99.99
2017-05-11T06:44:48.074Z,99.99
2017-05-11T06:45:28.614Z,99.99
2017-05-11T06:46:09.154Z,99.99
2017-05-11T06:46:49.670Z,99.99
2017-05-11T06:47:30.213Z,99.99
2017-05-11T06:48:10.750Z,99.99
2017-05-11T06:48:51.290Z,99.99
2017-05-11T06:49:31.820Z,99.99
2017-05-11T06:50:12.359Z,99.99
2017-05-11T06:50:52.894Z,99.99
2017-05-11T06:51:33.428Z,99.99
2017-05-11T06:52:13.961Z,99.99
2017-05-11T06:52:54.493Z,99.99
2017-05-11T06:53:35.036Z,99.99
2017-05-11T06:54:15.572Z,99.99
2017-05-11T06:54:56.101Z,99.99
2017-05-11T06:55:36.722Z,99.99
2017-05-11T06:56:17.223Z,99.99
2017-05-11T06:56:57.744Z,99.99
2017-05-11T06:57:38.270Z,99.99
2017-05-11T06:58:18.797Z,99.99
2017-05-11T06:58:59.323Z,99.99
2017-05-11T06:59:39.861Z,99.99
2017-05-11T07:00:20.400Z,99.99
2017-05-11T07:01:00.931Z,99.99
2017-05-11T07:01:41.462Z,99.99
2017-05-11T07:02:22.032Z,99.99
2017-05-11T07:03:02.598Z,99.99
2017-05-11T07:03:43.090Z,99.99
2017-05-11T07:04:23.648Z,99.99
2017-05-11T07:05:04.183Z,99.99
2017-05-11T07:05:44.726Z,99.99
2017-05-11T07:06:25.250Z,99.99
2017-05-11T07:07:05.779Z,99.99
2017-05-11T07:07:46.317Z,99.99
2017-05-11T07:08:26.865Z,99.99
2017-05-11T07:09:07.395Z,99.99
2017-05-11T07:09:47.932Z,99.99
2017-05-11T07:10:28.508Z,99.99
2017-05-11T07:11:09.003Z,99.99
2017-05-11T07:11:49.543Z,99.99
2017-05-11T07:12:30.071Z,99.99
2017-05-11T07:13:10.608Z,99.99
2017-05-11T07:13:51.147Z,99.99
2017-05-11T07:14:31.678Z,99.99
2017-05-11T07:15:12.233Z,99.99
2017-05-11T07:15:52.779Z,99.99
2017-05-11T07:16:33.316Z,99.99
2017-05-11T07:17:13.855Z,99.99
2017-05-11T07:17:54.391Z,99.99
2017-05-11T07:18:34.935Z,99.99
2017-05-11T07:19:15.502Z,99.99
2017-05-11T07:19:56.008Z,99.99
2017-05-11T07:20:36.543Z,99.99
2017-05-11T07:21:17.070Z,99.99
2017-05-11T07:21:57.621Z,99.99
2017-05-11T07:22:38.142Z,99.99
2017-05-11T07:23:18.679Z,99.99
2017-05-11T07:23:59.210Z,99.99
2017-05-11T07:24:39.754Z,99.99
2017-05-11T07:25:20.291Z,99.99
2017-05-11T07:26:00.826Z,99.99
2017-05-11T07:26:41.359Z,99.99
2017-05-11T07:27:21.881Z,99.99
2017-05-11T07:28:02.419Z,99.99
2017-05-11T07:28:42.955Z,99.99
2017-05-11T07:29:23.492Z,99.99
2017-05-11T07:30:04.034Z,99.99
2017-05-11T07:30:44.575Z,99.99
2017-05-11T07:31:25.134Z,99.99
2017-05-11T07:32:05.671Z,99.99
2017-05-11T07:32:46.214Z,99.99
2017-05-11T07:33:26.749Z,99.99
2017-05-11T07:34:07.286Z,99.99
2017-05-11T07:34:47.825Z,99.99
2017-05-11T07:35:28.370Z,99.99
2017-05-11T07:36:08.915Z,99.99
2017-05-11T07:36:49.445Z,99.99
2017-05-11T07:37:29.974Z,99.99
2017-05-11T07:38:10.516Z,99.99
2017-05-11T07:38:51.053Z,99.99
2017-05-11T07:39:31.593Z,99.99
2017-05-11T07:40:12.131Z,99.99
2017-05-11T07:40:52.677Z,99.99
2017-05-11T07:41:33.195Z,99.99
2017-05-11T07:42:13.725Z,99.99
2017-05-11T07:42:54.255Z,99.99
2017-05-11T07:43:34.792Z,99.99
2017-05-11T07:44:15.311Z,99.99
2017-05-11T07:44:55.859Z,99.99
2017-05-11T07:45:36.398Z,99.99
2017-05-11T07:46:16.921Z,99.99
2017-05-11T07:46:57.456Z,99.99
2017-05-11T07:47:38.022Z,99.99
2017-05-11T07:48:18.537Z,99.99
2017-05-11T07:48:59.073Z,99.99
2017-05-11T07:49:39.613Z,99.99
2017-05-11T07:50:20.161Z,99.99
2017-05-11T07:51:00.698Z,99.99
2017-05-11T07:51:41.234Z,99.99
2017-05-11T07:52:21.765Z,99.99
2017-05-11T07:53:02.304Z,99.99
2017-05-11T07:53:42.844Z,99.99
2017-05-11T07:54:23.383Z,99.99
2017-05-11T07:55:03.926Z,99.99
2017-05-11T07:55:44.465Z,99.99
2017-05-11T07:56:25.008Z,99.99
2017-05-11T07:57:05.548Z,99.99
2017-05-11T07:57:46.087Z,99.67
2017-05-11T07:58:26.628Z,99.87
2017-05-11T07:59:07.167Z,99.99
2017-05-11T07:59:47.709Z,98.96
2017-05-11T08:00:28.250Z,99.05
2017-05-11T08:01:08.799Z,98.67
2017-05-11T08:01:49.341Z,98.47
2017-05-11T08:02:29.878Z,98.57
2017-05-11T08:03:10.422Z,98.67
2017-05-11T08:03:50.960Z,98.47
2017-05-11T08:04:31.491Z,97.33
2017-05-11T08:05:12.013Z,97.66
2017-05-11T08:05:52.552Z,96.66
2017-05-11T08:06:33.081Z,97.28
2017-05-11T08:07:13.619Z,95.94
2017-05-11T08:07:54.153Z,96.03
2017-05-11T08:08:34.701Z,96.32
2017-05-11T08:09:15.266Z,95.26
2017-05-11T08:09:55.766Z,94.31
2017-05-11T08:10:36.306Z,93.93
2017-05-11T08:11:16.847Z,93.3
2017-05-11T08:11:57.386Z,93.06
2017-05-11T08:12:37.924Z,92.63
2017-05-11T08:13:18.473Z,92.63
2017-05-11T08:13:59.006Z,92.54
2017-05-11T08:14:39.557Z,91.86
2017-05-11T08:15:20.104Z,91.96
2017-05-11T08:16:00.640Z,92.44
2017-05-11T08:16:41.172Z,92.15
2017-05-11T08:17:21.712Z,91.05
2017-05-11T08:18:02.250Z,90.18
2017-05-11T08:18:42.784Z,89.99
2017-05-11T08:19:23.315Z,89.32
2017-05-11T08:20:03.844Z,88.74
2017-05-11T08:20:44.368Z,87.21
2017-05-11T08:21:24.901Z,87.05
2017-05-11T08:22:05.443Z,86.19
2017-05-11T08:22:45.988Z,86
2017-05-11T08:23:26.527Z,85.24
2017-05-11T08:24:07.060Z,85.14
2017-05-11T08:24:47.591Z,84.08
2017-05-11T08:25:28.160Z,84.27
2017-05-11T08:26:08.672Z,83.98
2017-05-11T08:26:49.213Z,83.31
2017-05-11T08:27:29.759Z,82.74
2017-05-11T08:28:10.299Z,83.22
2017-05-11T08:28:50.834Z,83.12
2017-05-11T08:29:31.389Z,83.22
2017-05-11T08:30:11.919Z,82.64
2017-05-11T08:30:52.459Z,83.12
2017-05-11T08:31:33.000Z,82.45
2017-05-11T08:32:13.547Z,83.12
2017-05-11T08:32:54.088Z,82.07
2017-05-11T08:33:34.628Z,81.59
2017-05-11T08:34:15.167Z,80.91
2017-05-11T08:34:55.691Z,81.01
2017-05-11T08:35:36.227Z,81.01
2017-05-11T08:36:16.774Z,80.24
2017-05-11T08:36:57.320Z,80.19
2017-05-11T08:37:37.859Z,80.19
2017-05-11T08:38:18.392Z,78.75
2017-05-11T08:38:58.937Z,78.08
2017-05-11T08:39:39.482Z,78.17
2017-05-11T08:40:20.026Z,77.88
2017-05-11T08:41:00.570Z,77.88
2017-05-11T08:41:41.116Z,77.88
2017-05-11T08:42:21.665Z,77.11
2017-05-11T08:43:02.219Z,77.69